sensor_id;sensor_type;location;lat;lon;timestamp;temperature;humidity
56256;DHT22;57229;51.432;-2.598;2023-07-30T00:01:07;15.20;99.90
56256;DHT22;57229;51.432;-2.598;2023-07-30T00:03:32;15.10;99.90
56256;DHT22;57229;51.432;-2.598;2023-07-30T00:05:58;15.00;99.90
56256;DHT22;57229;51.432;-2.598;2023-07-30T00:08:24;14.90;99.90
56256;DHT22;57229;51.432;-2.598;2023-07-30T00:10:49;14.90;99.90
56256;DHT22;57229;51.432;-2.598;2023-07-30T00:13:21;14.90;99.90
56256;DHT22;57229;51.432;-2.598;2023-07-30T00:15:47;14.90;99.90
56256;DHT22;57229;51.432;-2.598;2023-07-30T00:18:13;14.90;99.90
56256;DHT22;57229;51.432;-2.598;2023-07-30T00:20:39;14.90;99.90
56256;DHT22;57229;51.432;-2.598;2023-07-30T00:23:05;14.90;99.90
56256;DHT22;57229;51.432;-2.598;2023-07-30T00:25:30;14.90;99.90
56256;DHT22;57229;51.432;-2.598;2023-07-30T00:27:56;14.90;99.90
56256;DHT22;57229;51.432;-2.598;2023-07-30T00:30:21;14.90;99.90
56256;DHT22;57229;51.432;-2.598;2023-07-30T00:32:47;15.00;99.90
56256;DHT22;57229;51.432;-2.598;2023-07-30T00:35:13;15.00;99.90
56256;DHT22;57229;51.432;-2.598;2023-07-30T00:37:38;15.00;99.90
56256;DHT22;57229;51.432;-2.598;2023-07-30T00:40:04;15.00;99.90
56256;DHT22;57229;51.432;-2.598;2023-07-30T00:42:30;15.00;99.90
56256;DHT22;57229;51.432;-2.598;2023-07-30T00:44:56;15.00;99.90
56256;DHT22;57229;51.432;-2.598;2023-07-30T00:47:22;15.00;99.90
56256;DHT22;57229;51.432;-2.598;2023-07-30T00:49:49;15.00;99.90
56256;DHT22;57229;51.432;-2.598;2023-07-30T00:52:19;15.00;99.90
56256;DHT22;57229;51.432;-2.598;2023-07-30T00:54:47;14.90;99.90
56256;DHT22;57229;51.432;-2.598;2023-07-30T00:57:14;14.90;99.90
56256;DHT22;57229;51.432;-2.598;2023-07-30T00:59:40;14.90;99.90
56256;DHT22;57229;51.432;-2.598;2023-07-30T01:02:06;14.90;99.90
56256;DHT22;57229;51.432;-2.598;2023-07-30T01:04:32;14.90;99.90
56256;DHT22;57229;51.432;-2.598;2023-07-30T01:06:58;14.90;99.90
56256;DHT22;57229;51.432;-2.598;2023-07-30T01:09:23;15.00;99.90
56256;DHT22;57229;51.432;-2.598;2023-07-30T01:11:50;15.00;99.90
56256;DHT22;57229;51.432;-2.598;2023-07-30T01:14:16;14.90;99.90
56256;DHT22;57229;51.432;-2.598;2023-07-30T01:16:44;15.00;99.90
56256;DHT22;57229;51.432;-2.598;2023-07-30T01:19:10;15.00;99.90
56256;DHT22;57229;51.432;-2.598;2023-07-30T01:21:36;15.00;99.90
56256;DHT22;57229;51.432;-2.598;2023-07-30T01:24:02;15.10;99.90
56256;DHT22;57229;51.432;-2.598;2023-07-30T01:26:35;15.10;99.90
56256;DHT22;57229;51.432;-2.598;2023-07-30T01:29:06;15.10;99.90
56256;DHT22;57229;51.432;-2.598;2023-07-30T01:31:35;15.10;99.90
56256;DHT22;57229;51.432;-2.598;2023-07-30T01:34:02;15.20;99.90
56256;DHT22;57229;51.432;-2.598;2023-07-30T01:36:29;15.30;99.90
56256;DHT22;57229;51.432;-2.598;2023-07-30T01:38:55;15.30;99.90
56256;DHT22;57229;51.432;-2.598;2023-07-30T01:41:21;15.30;99.90
56256;DHT22;57229;51.432;-2.598;2023-07-30T01:43:47;15.40;99.90
56256;DHT22;57229;51.432;-2.598;2023-07-30T01:46:13;15.40;99.90
56256;DHT22;57229;51.432;-2.598;2023-07-30T01:48:38;15.40;99.90
56256;DHT22;57229;51.432;-2.598;2023-07-30T01:51:04;15.40;99.90
56256;DHT22;57229;51.432;-2.598;2023-07-30T01:53:29;15.40;99.90
56256;DHT22;57229;51.432;-2.598;2023-07-30T01:55:55;15.50;99.90
56256;DHT22;57229;51.432;-2.598;2023-07-30T01:58:23;15.50;99.90
56256;DHT22;57229;51.432;-2.598;2023-07-30T02:00:48;15.50;99.90
56256;DHT22;57229;51.432;-2.598;2023-07-30T02:03:14;15.60;99.90
56256;DHT22;57229;51.432;-2.598;2023-07-30T02:05:39;15.50;99.90
56256;DHT22;57229;51.432;-2.598;2023-07-30T02:08:05;15.60;99.90
56256;DHT22;57229;51.432;-2.598;2023-07-30T02:10:30;15.50;99.90
56256;DHT22;57229;51.432;-2.598;2023-07-30T02:12:56;15.50;99.90
56256;DHT22;57229;51.432;-2.598;2023-07-30T02:15:21;15.50;99.90
56256;DHT22;57229;51.432;-2.598;2023-07-30T02:17:47;15.50;99.90
56256;DHT22;57229;51.432;-2.598;2023-07-30T02:20:13;15.40;99.90
56256;DHT22;57229;51.432;-2.598;2023-07-30T02:22:38;15.50;99.90
56256;DHT22;57229;51.432;-2.598;2023-07-30T02:25:04;15.50;99.90
56256;DHT22;57229;51.432;-2.598;2023-07-30T02:27:30;15.40;99.90
56256;DHT22;57229;51.432;-2.598;2023-07-30T02:29:55;15.40;99.90
56256;DHT22;57229;51.432;-2.598;2023-07-30T02:32:21;15.50;99.90
56256;DHT22;57229;51.432;-2.598;2023-07-30T02:34:47;15.50;99.90
56256;DHT22;57229;51.432;-2.598;2023-07-30T02:37:12;15.40;99.90
56256;DHT22;57229;51.432;-2.598;2023-07-30T02:39:38;15.40;99.90
56256;DHT22;57229;51.432;-2.598;2023-07-30T02:42:04;15.50;99.90
56256;DHT22;57229;51.432;-2.598;2023-07-30T02:44:29;15.50;99.90
56256;DHT22;57229;51.432;-2.598;2023-07-30T02:46:55;15.50;99.90
56256;DHT22;57229;51.432;-2.598;2023-07-30T02:49:21;15.60;99.90
56256;DHT22;57229;51.432;-2.598;2023-07-30T02:51:46;15.60;99.90
56256;DHT22;57229;51.432;-2.598;2023-07-30T02:54:14;15.60;99.90
56256;DHT22;57229;51.432;-2.598;2023-07-30T02:56:41;15.70;99.90
56256;DHT22;57229;51.432;-2.598;2023-07-30T02:59:07;15.70;99.90
56256;DHT22;57229;51.432;-2.598;2023-07-30T03:01:32;15.70;99.90
56256;DHT22;57229;51.432;-2.598;2023-07-30T03:03:58;15.70;99.90
56256;DHT22;57229;51.432;-2.598;2023-07-30T03:06:23;15.70;99.90
56256;DHT22;57229;51.432;-2.598;2023-07-30T03:08:49;15.70;99.90
56256;DHT22;57229;51.432;-2.598;2023-07-30T03:11:15;15.70;99.90
56256;DHT22;57229;51.432;-2.598;2023-07-30T03:13:40;15.70;99.90
56256;DHT22;57229;51.432;-2.598;2023-07-30T03:16:06;15.60;99.90
56256;DHT22;57229;51.432;-2.598;2023-07-30T03:18:31;15.50;99.90
56256;DHT22;57229;51.432;-2.598;2023-07-30T03:20:59;15.50;99.90
56256;DHT22;57229;51.432;-2.598;2023-07-30T03:23:25;15.50;99.90
56256;DHT22;57229;51.432;-2.598;2023-07-30T03:25:51;15.50;99.90
56256;DHT22;57229;51.432;-2.598;2023-07-30T03:28:17;15.40;99.90
56256;DHT22;57229;51.432;-2.598;2023-07-30T03:30:42;15.40;99.90
56256;DHT22;57229;51.432;-2.598;2023-07-30T03:33:08;15.30;99.90
56256;DHT22;57229;51.432;-2.598;2023-07-30T03:35:33;15.30;99.90
56256;DHT22;57229;51.432;-2.598;2023-07-30T03:37:59;15.30;99.90
56256;DHT22;57229;51.432;-2.598;2023-07-30T03:40:24;15.30;99.90
56256;DHT22;57229;51.432;-2.598;2023-07-30T03:42:50;15.30;99.90
56256;DHT22;57229;51.432;-2.598;2023-07-30T03:45:16;15.40;99.90
56256;DHT22;57229;51.432;-2.598;2023-07-30T03:47:42;15.30;99.90
56256;DHT22;57229;51.432;-2.598;2023-07-30T03:50:07;15.40;99.90
56256;DHT22;57229;51.432;-2.598;2023-07-30T03:52:33;15.40;99.90
56256;DHT22;57229;51.432;-2.598;2023-07-30T03:54:59;15.30;99.90
56256;DHT22;57229;51.432;-2.598;2023-07-30T03:57:24;15.40;99.90
56256;DHT22;57229;51.432;-2.598;2023-07-30T03:59:50;15.40;99.90
56256;DHT22;57229;51.432;-2.598;2023-07-30T04:02:15;15.50;99.90
56256;DHT22;57229;51.432;-2.598;2023-07-30T04:04:42;15.50;99.90
56256;DHT22;57229;51.432;-2.598;2023-07-30T04:07:10;15.60;99.90
56256;DHT22;57229;51.432;-2.598;2023-07-30T04:09:36;15.50;99.90
56256;DHT22;57229;51.432;-2.598;2023-07-30T04:12:01;15.60;99.90
56256;DHT22;57229;51.432;-2.598;2023-07-30T04:14:27;15.60;99.90
56256;DHT22;57229;51.432;-2.598;2023-07-30T04:16:53;15.60;99.90
56256;DHT22;57229;51.432;-2.598;2023-07-30T04:19:18;15.60;99.90
56256;DHT22;57229;51.432;-2.598;2023-07-30T04:21:44;15.60;99.90
56256;DHT22;57229;51.432;-2.598;2023-07-30T04:24:10;15.60;99.90
56256;DHT22;57229;51.432;-2.598;2023-07-30T04:26:35;15.50;99.90
56256;DHT22;57229;51.432;-2.598;2023-07-30T04:29:01;15.50;99.90
56256;DHT22;57229;51.432;-2.598;2023-07-30T04:31:26;15.50;99.90
56256;DHT22;57229;51.432;-2.598;2023-07-30T04:33:52;15.50;99.90
56256;DHT22;57229;51.432;-2.598;2023-07-30T04:36:18;15.50;99.90
56256;DHT22;57229;51.432;-2.598;2023-07-30T04:38:43;15.40;99.90
56256;DHT22;57229;51.432;-2.598;2023-07-30T04:41:09;15.50;99.90
56256;DHT22;57229;51.432;-2.598;2023-07-30T04:43:34;15.50;99.90
56256;DHT22;57229;51.432;-2.598;2023-07-30T04:46:00;15.50;99.90
56256;DHT22;57229;51.432;-2.598;2023-07-30T04:48:25;15.50;99.90
56256;DHT22;57229;51.432;-2.598;2023-07-30T04:50:51;15.50;99.90
56256;DHT22;57229;51.432;-2.598;2023-07-30T04:53:17;15.60;99.90
56256;DHT22;57229;51.432;-2.598;2023-07-30T04:55:43;15.50;99.90
56256;DHT22;57229;51.432;-2.598;2023-07-30T04:58:09;15.40;99.90
56256;DHT22;57229;51.432;-2.598;2023-07-30T05:00:34;15.30;99.90
56256;DHT22;57229;51.432;-2.598;2023-07-30T05:03:00;15.20;99.90
56256;DHT22;57229;51.432;-2.598;2023-07-30T05:05:26;15.10;99.90
56256;DHT22;57229;51.432;-2.598;2023-07-30T05:07:51;15.00;99.90
56256;DHT22;57229;51.432;-2.598;2023-07-30T05:10:17;15.00;99.90
56256;DHT22;57229;51.432;-2.598;2023-07-30T05:12:42;15.00;99.90
56256;DHT22;57229;51.432;-2.598;2023-07-30T05:15:08;15.10;99.90
56256;DHT22;57229;51.432;-2.598;2023-07-30T05:17:34;15.10;99.90
56256;DHT22;57229;51.432;-2.598;2023-07-30T05:19:59;15.10;99.90
56256;DHT22;57229;51.432;-2.598;2023-07-30T05:22:25;15.10;99.90
56256;DHT22;57229;51.432;-2.598;2023-07-30T05:24:51;15.10;99.90
56256;DHT22;57229;51.432;-2.598;2023-07-30T05:27:17;15.10;99.90
56256;DHT22;57229;51.432;-2.598;2023-07-30T05:29:42;15.20;99.90
56256;DHT22;57229;51.432;-2.598;2023-07-30T05:32:08;15.20;99.90
56256;DHT22;57229;51.432;-2.598;2023-07-30T05:34:34;15.20;99.90
56256;DHT22;57229;51.432;-2.598;2023-07-30T05:37:00;15.20;99.90
56256;DHT22;57229;51.432;-2.598;2023-07-30T05:39:25;15.20;99.90
56256;DHT22;57229;51.432;-2.598;2023-07-30T05:41:51;15.10;99.90
56256;DHT22;57229;51.432;-2.598;2023-07-30T05:44:17;15.10;99.90
56256;DHT22;57229;51.432;-2.598;2023-07-30T05:46:43;15.10;99.90
56256;DHT22;57229;51.432;-2.598;2023-07-30T05:49:08;15.00;99.90
56256;DHT22;57229;51.432;-2.598;2023-07-30T05:51:34;15.00;99.90
56256;DHT22;57229;51.432;-2.598;2023-07-30T05:54:00;15.00;99.90
56256;DHT22;57229;51.432;-2.598;2023-07-30T05:56:25;15.00;99.90
56256;DHT22;57229;51.432;-2.598;2023-07-30T05:58:51;15.10;99.90
56256;DHT22;57229;51.432;-2.598;2023-07-30T06:01:16;15.10;99.90
56256;DHT22;57229;51.432;-2.598;2023-07-30T06:03:42;15.10;99.90
56256;DHT22;57229;51.432;-2.598;2023-07-30T06:06:08;15.10;99.90
56256;DHT22;57229;51.432;-2.598;2023-07-30T06:08:34;15.10;99.90
56256;DHT22;57229;51.432;-2.598;2023-07-30T06:11:03;15.20;99.90
56256;DHT22;57229;51.432;-2.598;2023-07-30T06:13:29;15.20;99.90
56256;DHT22;57229;51.432;-2.598;2023-07-30T06:15:54;15.30;99.90
56256;DHT22;57229;51.432;-2.598;2023-07-30T06:18:20;15.40;99.90
56256;DHT22;57229;51.432;-2.598;2023-07-30T06:20:46;15.30;99.90
56256;DHT22;57229;51.432;-2.598;2023-07-30T06:23:12;15.40;99.90
56256;DHT22;57229;51.432;-2.598;2023-07-30T06:25:37;15.50;99.90
56256;DHT22;57229;51.432;-2.598;2023-07-30T06:28:04;15.40;99.90
56256;DHT22;57229;51.432;-2.598;2023-07-30T06:30:31;15.50;99.90
56256;DHT22;57229;51.432;-2.598;2023-07-30T06:32:57;15.50;99.90
56256;DHT22;57229;51.432;-2.598;2023-07-30T06:35:23;15.50;99.90
56256;DHT22;57229;51.432;-2.598;2023-07-30T06:37:49;15.50;99.90
56256;DHT22;57229;51.432;-2.598;2023-07-30T06:40:14;15.60;99.90
56256;DHT22;57229;51.432;-2.598;2023-07-30T06:42:40;15.70;99.90
56256;DHT22;57229;51.432;-2.598;2023-07-30T06:45:06;15.90;99.90
56256;DHT22;57229;51.432;-2.598;2023-07-30T06:47:32;15.90;99.90
56256;DHT22;57229;51.432;-2.598;2023-07-30T06:49:57;15.90;99.90
56256;DHT22;57229;51.432;-2.598;2023-07-30T06:52:23;16.00;99.90
56256;DHT22;57229;51.432;-2.598;2023-07-30T06:54:48;16.00;99.90
56256;DHT22;57229;51.432;-2.598;2023-07-30T06:57:14;16.10;99.90
56256;DHT22;57229;51.432;-2.598;2023-07-30T06:59:40;16.00;99.90
56256;DHT22;57229;51.432;-2.598;2023-07-30T07:02:06;16.10;99.90
56256;DHT22;57229;51.432;-2.598;2023-07-30T07:04:31;16.10;99.90
56256;DHT22;57229;51.432;-2.598;2023-07-30T07:06:57;16.30;99.90
56256;DHT22;57229;51.432;-2.598;2023-07-30T07:09:22;16.40;99.90
56256;DHT22;57229;51.432;-2.598;2023-07-30T07:11:48;16.50;99.90
56256;DHT22;57229;51.432;-2.598;2023-07-30T07:14:14;16.60;99.90
56256;DHT22;57229;51.432;-2.598;2023-07-30T07:16:39;16.70;99.90
56256;DHT22;57229;51.432;-2.598;2023-07-30T07:19:05;16.80;99.90
56256;DHT22;57229;51.432;-2.598;2023-07-30T07:21:30;16.70;99.90
56256;DHT22;57229;51.432;-2.598;2023-07-30T07:23:56;16.70;99.90
56256;DHT22;57229;51.432;-2.598;2023-07-30T07:26:22;16.70;99.90
56256;DHT22;57229;51.432;-2.598;2023-07-30T07:28:47;16.70;99.90
56256;DHT22;57229;51.432;-2.598;2023-07-30T07:31:13;16.80;99.90
56256;DHT22;57229;51.432;-2.598;2023-07-30T07:33:39;16.90;99.90
56256;DHT22;57229;51.432;-2.598;2023-07-30T07:36:06;17.00;99.90
56256;DHT22;57229;51.432;-2.598;2023-07-30T07:38:33;17.20;99.90
56256;DHT22;57229;51.432;-2.598;2023-07-30T07:40:59;17.40;99.90
56256;DHT22;57229;51.432;-2.598;2023-07-30T07:43:25;17.60;99.90
56256;DHT22;57229;51.432;-2.598;2023-07-30T07:45:52;17.60;99.90
56256;DHT22;57229;51.432;-2.598;2023-07-30T07:48:18;17.40;99.90
56256;DHT22;57229;51.432;-2.598;2023-07-30T07:50:44;17.30;99.90
56256;DHT22;57229;51.432;-2.598;2023-07-30T07:53:10;17.30;99.90
56256;DHT22;57229;51.432;-2.598;2023-07-30T07:55:36;17.20;99.90
56256;DHT22;57229;51.432;-2.598;2023-07-30T07:58:01;17.10;99.90
56256;DHT22;57229;51.432;-2.598;2023-07-30T08:00:27;17.00;99.90
56256;DHT22;57229;51.432;-2.598;2023-07-30T08:02:52;17.00;99.90
56256;DHT22;57229;51.432;-2.598;2023-07-30T08:05:18;17.00;99.90
56256;DHT22;57229;51.432;-2.598;2023-07-30T08:07:46;17.30;99.90
56256;DHT22;57229;51.432;-2.598;2023-07-30T08:10:11;17.50;99.90
56256;DHT22;57229;51.432;-2.598;2023-07-30T08:12:37;17.40;99.90
56256;DHT22;57229;51.432;-2.598;2023-07-30T08:15:03;17.20;99.90
56256;DHT22;57229;51.432;-2.598;2023-07-30T08:17:29;17.20;99.90
56256;DHT22;57229;51.432;-2.598;2023-07-30T08:19:55;17.20;99.90
56256;DHT22;57229;51.432;-2.598;2023-07-30T08:22:21;17.00;99.90
56256;DHT22;57229;51.432;-2.598;2023-07-30T08:24:46;16.90;99.90
56256;DHT22;57229;51.432;-2.598;2023-07-30T08:27:12;16.90;99.90
56256;DHT22;57229;51.432;-2.598;2023-07-30T08:29:37;17.00;99.90
56256;DHT22;57229;51.432;-2.598;2023-07-30T08:32:03;17.20;99.90
56256;DHT22;57229;51.432;-2.598;2023-07-30T08:34:29;17.40;99.90
56256;DHT22;57229;51.432;-2.598;2023-07-30T08:36:54;17.70;99.90
56256;DHT22;57229;51.432;-2.598;2023-07-30T08:39:20;18.00;99.90
56256;DHT22;57229;51.432;-2.598;2023-07-30T08:41:46;18.00;99.90
56256;DHT22;57229;51.432;-2.598;2023-07-30T08:44:12;17.80;99.90
56256;DHT22;57229;51.432;-2.598;2023-07-30T08:46:38;17.60;99.90
56256;DHT22;57229;51.432;-2.598;2023-07-30T08:49:04;17.40;99.90
56256;DHT22;57229;51.432;-2.598;2023-07-30T08:51:31;17.20;99.90
56256;DHT22;57229;51.432;-2.598;2023-07-30T08:53:57;17.10;99.90
56256;DHT22;57229;51.432;-2.598;2023-07-30T08:56:25;17.20;99.90
56256;DHT22;57229;51.432;-2.598;2023-07-30T08:58:53;17.30;99.90
56256;DHT22;57229;51.432;-2.598;2023-07-30T09:01:26;17.20;99.90
56256;DHT22;57229;51.432;-2.598;2023-07-30T09:03:54;17.20;99.90
56256;DHT22;57229;51.432;-2.598;2023-07-30T09:06:21;17.30;99.90
56256;DHT22;57229;51.432;-2.598;2023-07-30T09:08:48;17.60;99.90
56256;DHT22;57229;51.432;-2.598;2023-07-30T09:11:13;17.80;99.90
56256;DHT22;57229;51.432;-2.598;2023-07-30T09:13:41;17.80;99.90
56256;DHT22;57229;51.432;-2.598;2023-07-30T09:16:11;17.60;99.90
56256;DHT22;57229;51.432;-2.598;2023-07-30T09:18:44;17.50;99.90
56256;DHT22;57229;51.432;-2.598;2023-07-30T09:21:11;17.50;99.90
56256;DHT22;57229;51.432;-2.598;2023-07-30T09:23:46;17.40;99.90
56256;DHT22;57229;51.432;-2.598;2023-07-30T09:26:12;17.60;99.90
56256;DHT22;57229;51.432;-2.598;2023-07-30T09:28:38;17.60;99.90
56256;DHT22;57229;51.432;-2.598;2023-07-30T09:31:06;17.90;99.90
56256;DHT22;57229;51.432;-2.598;2023-07-30T09:33:32;18.00;99.90
56256;DHT22;57229;51.432;-2.598;2023-07-30T09:36:01;18.10;99.90
56256;DHT22;57229;51.432;-2.598;2023-07-30T09:38:26;18.20;99.90
56256;DHT22;57229;51.432;-2.598;2023-07-30T09:41:00;18.30;99.90
56256;DHT22;57229;51.432;-2.598;2023-07-30T09:43:29;18.50;99.90
56256;DHT22;57229;51.432;-2.598;2023-07-30T09:46:01;18.60;99.90
56256;DHT22;57229;51.432;-2.598;2023-07-30T09:48:27;18.70;99.90
56256;DHT22;57229;51.432;-2.598;2023-07-30T09:50:53;18.60;99.90
56256;DHT22;57229;51.432;-2.598;2023-07-30T09:53:20;18.60;99.90
56256;DHT22;57229;51.432;-2.598;2023-07-30T09:55:46;18.50;99.90
56256;DHT22;57229;51.432;-2.598;2023-07-30T09:58:13;18.40;99.90
56256;DHT22;57229;51.432;-2.598;2023-07-30T10:00:39;18.30;99.90
56256;DHT22;57229;51.432;-2.598;2023-07-30T10:03:05;18.20;99.90
56256;DHT22;57229;51.432;-2.598;2023-07-30T10:05:33;18.20;99.90
56256;DHT22;57229;51.432;-2.598;2023-07-30T10:08:19;18.20;99.90
56256;DHT22;57229;51.432;-2.598;2023-07-30T10:10:46;18.20;99.90
56256;DHT22;57229;51.432;-2.598;2023-07-30T10:13:12;18.30;99.90
56256;DHT22;57229;51.432;-2.598;2023-07-30T10:15:39;18.40;99.90
56256;DHT22;57229;51.432;-2.598;2023-07-30T10:18:04;18.50;99.90
56256;DHT22;57229;51.432;-2.598;2023-07-30T10:20:31;18.60;99.90
56256;DHT22;57229;51.432;-2.598;2023-07-30T10:22:58;18.70;99.90
56256;DHT22;57229;51.432;-2.598;2023-07-30T10:25:44;18.70;99.90
56256;DHT22;57229;51.432;-2.598;2023-07-30T10:28:34;18.90;99.90
56256;DHT22;57229;51.432;-2.598;2023-07-30T10:31:05;19.10;99.90
56256;DHT22;57229;51.432;-2.598;2023-07-30T10:33:53;19.30;99.90
56256;DHT22;57229;51.432;-2.598;2023-07-30T10:36:31;19.30;99.90
56256;DHT22;57229;51.432;-2.598;2023-07-30T10:38:57;19.30;99.90
56256;DHT22;57229;51.432;-2.598;2023-07-30T10:41:22;19.20;99.90
56256;DHT22;57229;51.432;-2.598;2023-07-30T10:43:51;19.00;99.90
56256;DHT22;57229;51.432;-2.598;2023-07-30T10:46:19;18.70;99.90
56256;DHT22;57229;51.432;-2.598;2023-07-30T10:48:46;18.50;99.90
56256;DHT22;57229;51.432;-2.598;2023-07-30T10:51:17;18.50;99.90
56256;DHT22;57229;51.432;-2.598;2023-07-30T10:53:44;18.50;99.90
56256;DHT22;57229;51.432;-2.598;2023-07-30T10:56:11;18.60;99.90
56256;DHT22;57229;51.432;-2.598;2023-07-30T10:58:37;18.70;99.90
56256;DHT22;57229;51.432;-2.598;2023-07-30T11:01:04;18.70;99.90
56256;DHT22;57229;51.432;-2.598;2023-07-30T11:03:30;18.60;99.90
56256;DHT22;57229;51.432;-2.598;2023-07-30T11:06:00;18.50;99.90
56256;DHT22;57229;51.432;-2.598;2023-07-30T11:08:52;18.40;99.90
56256;DHT22;57229;51.432;-2.598;2023-07-30T11:11:18;18.30;99.90
56256;DHT22;57229;51.432;-2.598;2023-07-30T11:13:45;18.30;99.90
56256;DHT22;57229;51.432;-2.598;2023-07-30T11:16:12;18.30;99.90
56256;DHT22;57229;51.432;-2.598;2023-07-30T11:18:39;18.30;99.90
56256;DHT22;57229;51.432;-2.598;2023-07-30T11:21:12;18.20;99.90
56256;DHT22;57229;51.432;-2.598;2023-07-30T11:23:40;18.20;99.90
56256;DHT22;57229;51.432;-2.598;2023-07-30T11:26:08;18.10;99.90
56256;DHT22;57229;51.432;-2.598;2023-07-30T11:28:38;17.90;99.90
56256;DHT22;57229;51.432;-2.598;2023-07-30T11:31:15;17.80;99.90
56256;DHT22;57229;51.432;-2.598;2023-07-30T11:33:44;17.70;99.90
56256;DHT22;57229;51.432;-2.598;2023-07-30T11:36:14;17.60;99.90
56256;DHT22;57229;51.432;-2.598;2023-07-30T11:38:40;17.50;99.90
56256;DHT22;57229;51.432;-2.598;2023-07-30T11:41:07;17.40;99.90
56256;DHT22;57229;51.432;-2.598;2023-07-30T11:43:39;17.40;99.90
56256;DHT22;57229;51.432;-2.598;2023-07-30T11:48:41;17.30;99.90
56256;DHT22;57229;51.432;-2.598;2023-07-30T11:53:52;17.30;99.90
56256;DHT22;57229;51.432;-2.598;2023-07-30T11:56:20;17.40;99.90
56256;DHT22;57229;51.432;-2.598;2023-07-30T11:58:48;17.40;99.90
56256;DHT22;57229;51.432;-2.598;2023-07-30T12:01:15;17.40;99.90
56256;DHT22;57229;51.432;-2.598;2023-07-30T12:03:41;17.40;99.90
56256;DHT22;57229;51.432;-2.598;2023-07-30T12:06:09;17.40;99.90
56256;DHT22;57229;51.432;-2.598;2023-07-30T12:08:35;17.40;99.90
56256;DHT22;57229;51.432;-2.598;2023-07-30T12:11:05;17.30;99.90
56256;DHT22;57229;51.432;-2.598;2023-07-30T12:13:32;17.50;99.90
56256;DHT22;57229;51.432;-2.598;2023-07-30T12:15:58;17.50;99.90
56256;DHT22;57229;51.432;-2.598;2023-07-30T12:18:25;17.50;99.90
56256;DHT22;57229;51.432;-2.598;2023-07-30T12:20:52;17.50;99.90
56256;DHT22;57229;51.432;-2.598;2023-07-30T12:23:21;17.60;99.90
56256;DHT22;57229;51.432;-2.598;2023-07-30T12:25:46;17.60;99.90
56256;DHT22;57229;51.432;-2.598;2023-07-30T12:28:13;17.50;99.90
56256;DHT22;57229;51.432;-2.598;2023-07-30T12:30:39;17.50;99.90
56256;DHT22;57229;51.432;-2.598;2023-07-30T12:33:05;17.50;99.90
56256;DHT22;57229;51.432;-2.598;2023-07-30T12:35:31;17.50;99.90
56256;DHT22;57229;51.432;-2.598;2023-07-30T12:37:58;17.50;99.90
56256;DHT22;57229;51.432;-2.598;2023-07-30T12:40:24;17.60;99.90
56256;DHT22;57229;51.432;-2.598;2023-07-30T12:42:49;17.60;99.90
56256;DHT22;57229;51.432;-2.598;2023-07-30T12:45:15;17.70;99.90
56256;DHT22;57229;51.432;-2.598;2023-07-30T12:47:42;17.70;99.90
56256;DHT22;57229;51.432;-2.598;2023-07-30T12:50:08;17.70;99.90
56256;DHT22;57229;51.432;-2.598;2023-07-30T12:52:34;17.70;99.90
56256;DHT22;57229;51.432;-2.598;2023-07-30T12:55:00;17.70;99.90
56256;DHT22;57229;51.432;-2.598;2023-07-30T12:57:26;17.70;99.90
56256;DHT22;57229;51.432;-2.598;2023-07-30T12:59:51;17.70;99.90
56256;DHT22;57229;51.432;-2.598;2023-07-30T13:02:17;17.60;99.90
56256;DHT22;57229;51.432;-2.598;2023-07-30T13:04:42;17.70;99.90
56256;DHT22;57229;51.432;-2.598;2023-07-30T13:07:08;17.70;99.90
56256;DHT22;57229;51.432;-2.598;2023-07-30T13:09:34;17.70;99.90
56256;DHT22;57229;51.432;-2.598;2023-07-30T13:12:00;17.80;99.90
56256;DHT22;57229;51.432;-2.598;2023-07-30T13:14:25;17.80;99.90
56256;DHT22;57229;51.432;-2.598;2023-07-30T13:16:51;17.80;99.90
56256;DHT22;57229;51.432;-2.598;2023-07-30T13:19:16;17.80;99.90
56256;DHT22;57229;51.432;-2.598;2023-07-30T13:21:42;17.80;99.90
56256;DHT22;57229;51.432;-2.598;2023-07-30T13:24:08;17.80;99.90
56256;DHT22;57229;51.432;-2.598;2023-07-30T13:26:35;17.80;99.90
56256;DHT22;57229;51.432;-2.598;2023-07-30T13:29:10;17.80;99.90
56256;DHT22;57229;51.432;-2.598;2023-07-30T13:31:35;17.80;99.90
56256;DHT22;57229;51.432;-2.598;2023-07-30T13:34:01;17.70;99.90
56256;DHT22;57229;51.432;-2.598;2023-07-30T13:36:26;17.70;99.90
56256;DHT22;57229;51.432;-2.598;2023-07-30T13:38:52;17.60;99.90
56256;DHT22;57229;51.432;-2.598;2023-07-30T13:41:18;17.60;99.90
56256;DHT22;57229;51.432;-2.598;2023-07-30T13:43:43;17.50;99.90
56256;DHT22;57229;51.432;-2.598;2023-07-30T13:46:09;17.40;99.90
56256;DHT22;57229;51.432;-2.598;2023-07-30T13:48:34;17.40;99.90
56256;DHT22;57229;51.432;-2.598;2023-07-30T13:51:00;17.40;99.90
56256;DHT22;57229;51.432;-2.598;2023-07-30T13:53:25;17.30;99.90
56256;DHT22;57229;51.432;-2.598;2023-07-30T13:55:51;17.20;99.90
56256;DHT22;57229;51.432;-2.598;2023-07-30T13:58:17;17.20;99.90
56256;DHT22;57229;51.432;-2.598;2023-07-30T14:00:42;17.10;99.90
56256;DHT22;57229;51.432;-2.598;2023-07-30T14:03:08;17.00;99.90
56256;DHT22;57229;51.432;-2.598;2023-07-30T14:05:34;16.90;99.90
56256;DHT22;57229;51.432;-2.598;2023-07-30T14:08:00;16.80;99.90
56256;DHT22;57229;51.432;-2.598;2023-07-30T14:13:44;16.70;99.90
56256;DHT22;57229;51.432;-2.598;2023-07-30T14:16:10;16.80;99.90
56256;DHT22;57229;51.432;-2.598;2023-07-30T14:18:35;16.90;99.90
56256;DHT22;57229;51.432;-2.598;2023-07-30T14:21:01;16.90;99.90
56256;DHT22;57229;51.432;-2.598;2023-07-30T14:23:28;17.00;99.90
56256;DHT22;57229;51.432;-2.598;2023-07-30T14:25:53;17.00;99.90
56256;DHT22;57229;51.432;-2.598;2023-07-30T14:28:19;17.10;99.90
56256;DHT22;57229;51.432;-2.598;2023-07-30T14:30:44;17.10;99.90
56256;DHT22;57229;51.432;-2.598;2023-07-30T14:33:10;17.10;99.90
56256;DHT22;57229;51.432;-2.598;2023-07-30T14:35:36;17.20;99.90
56256;DHT22;57229;51.432;-2.598;2023-07-30T14:38:04;17.20;99.90
56256;DHT22;57229;51.432;-2.598;2023-07-30T14:40:30;17.20;99.90
56256;DHT22;57229;51.432;-2.598;2023-07-30T14:42:56;17.20;99.90
56256;DHT22;57229;51.432;-2.598;2023-07-30T14:45:22;17.30;99.90
56256;DHT22;57229;51.432;-2.598;2023-07-30T14:47:48;17.30;99.90
56256;DHT22;57229;51.432;-2.598;2023-07-30T14:50:13;17.40;99.90
56256;DHT22;57229;51.432;-2.598;2023-07-30T14:52:39;17.20;99.90
56256;DHT22;57229;51.432;-2.598;2023-07-30T14:55:05;17.40;99.90
56256;DHT22;57229;51.432;-2.598;2023-07-30T14:57:31;16.80;99.90
56256;DHT22;57229;51.432;-2.598;2023-07-30T15:00:01;17.20;99.90
56256;DHT22;57229;51.432;-2.598;2023-07-30T15:02:28;17.30;99.90
56256;DHT22;57229;51.432;-2.598;2023-07-30T15:04:54;17.30;99.90
56256;DHT22;57229;51.432;-2.598;2023-07-30T15:07:20;17.30;99.90
56256;DHT22;57229;51.432;-2.598;2023-07-30T15:09:45;17.40;99.90
56256;DHT22;57229;51.432;-2.598;2023-07-30T15:12:12;17.40;99.90
56256;DHT22;57229;51.432;-2.598;2023-07-30T15:14:38;17.50;99.90
56256;DHT22;57229;51.432;-2.598;2023-07-30T15:17:04;17.50;99.90
56256;DHT22;57229;51.432;-2.598;2023-07-30T15:19:30;17.50;99.90